createdAt,value
2023-01-22T00:01:18.830Z,24.95
2023-01-22T00:03:46.939Z,27.55
2023-01-22T00:06:14.496Z,25.77
2023-01-22T00:08:41.217Z,28.13
2023-01-22T00:11:08.029Z,27.23
2023-01-22T00:13:35.709Z,26.20
2023-01-22T00:16:02.893Z,29.05
2023-01-22T00:18:29.825Z,25.52
2023-01-22T00:20:56.649Z,27.25
2023-01-22T00:23:24.565Z,27.92
2023-01-22T00:26:01.211Z,26.85
2023-01-22T00:28:28.008Z,26.48
2023-01-22T00:31:02.216Z,27.13
2023-01-22T00:33:29.677Z,26.75
2023-01-22T00:35:56.773Z,27.67
2023-01-22T00:38:23.489Z,29.65
2023-01-22T00:40:50.202Z,30.27
2023-01-22T00:43:16.907Z,32.00
2023-01-22T00:45:43.581Z,30.15
2023-01-22T00:48:10.295Z,30.88
2023-01-22T00:50:37.123Z,31.15
2023-01-22T00:53:04.123Z,30.95
2023-01-22T00:55:31.408Z,31.92
2023-01-22T00:57:58.066Z,33.38
2023-01-22T01:00:24.893Z,34.22
2023-01-22T01:03:10.239Z,32.63
2023-01-22T01:05:37.012Z,33.00
2023-01-22T01:08:03.748Z,30.75
2023-01-22T01:10:30.505Z,28.42
2023-01-22T01:12:57.276Z,30.70
2023-01-22T01:15:24.469Z,32.35
2023-01-22T01:17:51.334Z,33.50
2023-01-22T01:20:18.304Z,32.42
2023-01-22T01:22:45.112Z,34.92
2023-01-22T01:25:11.947Z,36.63
2023-01-22T01:27:38.563Z,34.75
2023-01-22T01:30:06.163Z,33.42
2023-01-22T01:32:32.877Z,33.63
2023-01-22T01:34:59.574Z,33.63
2023-01-22T01:37:26.307Z,34.00
2023-01-22T01:39:53.118Z,32.70
2023-01-22T01:42:30.981Z,33.33
2023-01-22T01:45:25.325Z,33.30
2023-01-22T01:48:13.242Z,35.45
2023-01-22T01:50:42.766Z,35.03
2023-01-22T01:53:10.599Z,35.00
2023-01-22T01:55:39.506Z,30.65
2023-01-22T01:58:13.861Z,32.22
2023-01-22T02:00:43.524Z,33.17
2023-01-22T02:03:10.165Z,32.55
2023-01-22T02:05:38.923Z,34.22
2023-01-22T02:08:07.345Z,32.28
2023-01-22T02:10:34.092Z,29.90
2023-01-22T02:13:06.679Z,29.95
2023-01-22T02:15:34.171Z,29.25
2023-01-22T02:18:00.854Z,28.55
2023-01-22T02:20:27.905Z,30.65
2023-01-22T02:22:54.669Z,28.95
2023-01-22T02:25:22.565Z,29.17
2023-01-22T02:27:49.457Z,27.70
2023-01-22T02:30:16.877Z,28.38
2023-01-22T02:32:43.850Z,30.05
2023-01-22T02:35:10.554Z,31.90
2023-01-22T02:37:37.216Z,31.45
2023-01-22T02:40:04.178Z,32.13
2023-01-22T02:42:30.999Z,35.50
2023-01-22T02:44:57.616Z,34.28
2023-01-22T02:47:24.288Z,33.25
2023-01-22T02:49:51.013Z,33.97
2023-01-22T02:52:17.949Z,32.95
2023-01-22T02:54:44.652Z,31.65
2023-01-22T02:57:11.464Z,32.10
2023-01-22T02:59:38.116Z,31.58
2023-01-22T03:02:04.841Z,34.33
2023-01-22T03:04:31.954Z,31.77
2023-01-22T03:06:58.606Z,32.90
2023-01-22T03:09:25.244Z,33.25
2023-01-22T03:11:51.996Z,33.10
2023-01-22T03:14:37.438Z,33.50
2023-01-22T03:17:22.803Z,32.28
2023-01-22T03:20:08.092Z,31.38
2023-01-22T03:22:35.055Z,34.20
2023-01-22T03:25:02.700Z,31.45
2023-01-22T03:27:31.218Z,30.75
2023-01-22T03:29:58.051Z,30.92
2023-01-22T03:32:24.755Z,31.08
2023-01-22T03:34:51.851Z,31.20
2023-01-22T03:37:19.326Z,31.65
2023-01-22T03:39:46.412Z,31.38
2023-01-22T03:42:13.053Z,30.77
2023-01-22T03:44:39.748Z,30.75
2023-01-22T03:47:06.453Z,30.08
2023-01-22T03:49:33.098Z,28.70
2023-01-22T03:51:59.960Z,27.73
2023-01-22T03:54:26.821Z,29.55
2023-01-22T03:56:53.476Z,27.83
2023-01-22T03:59:20.347Z,28.65
2023-01-22T04:01:47.270Z,29.02
2023-01-22T04:04:13.893Z,25.73
2023-01-22T04:06:41.021Z,26.40
2023-01-22T04:09:07.831Z,25.88
2023-01-22T04:11:34.551Z,26.10
2023-01-22T04:14:01.288Z,26.00
2023-01-22T04:16:28.083Z,26.10
2023-01-22T04:18:54.710Z,29.42
2023-01-22T04:21:21.474Z,28.40
2023-01-22T04:23:48.106Z,25.58
2023-01-22T04:26:14.708Z,28.98
2023-01-22T04:28:41.501Z,28.23
2023-01-22T04:31:10.222Z,29.67
2023-01-22T04:33:36.935Z,33.33
2023-01-22T04:36:03.904Z,33.70
2023-01-22T04:38:30.649Z,31.70
2023-01-22T04:40:57.449Z,31.23
2023-01-22T04:43:24.355Z,29.25
2023-01-22T04:45:51.573Z,29.75
2023-01-22T04:48:18.207Z,30.90
2023-01-22T04:50:46.380Z,29.27
2023-01-22T04:53:13.283Z,27.83
2023-01-22T04:55:42.003Z,28.15
2023-01-22T04:58:09.490Z,28.42
2023-01-22T05:00:36.573Z,121.68
2023-01-22T05:03:04.860Z,28.63
2023-01-22T05:05:32.278Z,27.02
2023-01-22T05:07:59.688Z,27.27
2023-01-22T05:10:26.394Z,27.98
2023-01-22T05:12:53.538Z,28.88
2023-01-22T05:15:25.175Z,26.70
2023-01-22T05:17:53.110Z,25.20
2023-01-22T05:20:20.960Z,29.80
2023-01-22T05:22:47.992Z,26.90
2023-01-22T05:25:14.761Z,41.15
2023-01-22T05:27:41.698Z,31.40
2023-01-22T05:30:09.886Z,25.92
2023-01-22T05:32:36.940Z,27.05
2023-01-22T05:35:05.092Z,60.33
2023-01-22T05:37:32.488Z,26.50
2023-01-22T05:39:59.197Z,26.27
2023-01-22T05:42:25.983Z,25.48
2023-01-22T05:44:52.936Z,26.20
2023-01-22T05:47:19.584Z,26.52
2023-01-22T05:49:46.280Z,34.15
2023-01-22T05:52:12.917Z,33.72
2023-01-22T05:54:39.890Z,34.15
2023-01-22T05:57:07.303Z,33.58
2023-01-22T05:59:34.039Z,32.08
2023-01-22T06:02:01.047Z,31.40
2023-01-22T06:04:28.025Z,44.53
2023-01-22T06:06:54.663Z,29.23
2023-01-22T06:09:21.281Z,28.27
2023-01-22T06:11:48.383Z,28.38
2023-01-22T06:14:15.085Z,26.58
2023-01-22T06:16:42.185Z,26.95
2023-01-22T06:19:09.571Z,27.88
2023-01-22T06:21:36.393Z,27.60
2023-01-22T06:24:03.019Z,26.67
2023-01-22T06:26:29.858Z,28.88
2023-01-22T06:28:56.702Z,30.30
2023-01-22T06:31:23.437Z,34.70
2023-01-22T06:33:50.247Z,41.50
2023-01-22T06:36:16.949Z,40.22
2023-01-22T06:38:43.806Z,41.92
2023-01-22T06:41:10.784Z,29.58
2023-01-22T06:43:37.788Z,29.85
2023-01-22T06:46:05.253Z,28.15
2023-01-22T06:48:32.402Z,28.73
2023-01-22T06:51:00.823Z,29.42
2023-01-22T06:53:27.781Z,28.17
2023-01-22T06:55:54.853Z,26.00
2023-01-22T06:58:21.954Z,25.83
2023-01-22T07:00:48.793Z,26.80
2023-01-22T07:03:15.543Z,31.35
2023-01-22T07:05:42.569Z,38.28
2023-01-22T07:08:14.734Z,41.63
2023-01-22T07:10:42.051Z,41.30
2023-01-22T07:13:10.341Z,37.50
2023-01-22T07:15:37.115Z,32.08
2023-01-22T07:18:04.333Z,36.25
2023-01-22T07:20:31.212Z,45.38
2023-01-22T07:23:00.248Z,49.15
2023-01-22T07:25:28.179Z,46.08
2023-01-22T07:28:02.914Z,46.00
2023-01-22T07:30:30.096Z,43.45
2023-01-22T07:33:03.529Z,27.60
2023-01-22T07:35:30.824Z,26.65
2023-01-22T07:37:59.355Z,25.60
2023-01-22T07:40:26.775Z,23.55
2023-01-22T07:42:55.022Z,26.55
2023-01-22T07:45:24.502Z,25.30
2023-01-22T07:48:00.951Z,29.83
2023-01-22T07:50:30.778Z,41.15
2023-01-22T07:52:57.636Z,42.08
2023-01-22T07:55:24.885Z,41.13
2023-01-22T07:58:04.891Z,39.88
2023-01-22T08:00:34.955Z,37.78
2023-01-22T08:03:04.494Z,35.22
2023-01-22T08:05:31.288Z,47.05
2023-01-22T08:07:58.802Z,45.63
2023-01-22T08:10:25.568Z,43.63
2023-01-22T08:12:52.177Z,43.78
2023-01-22T08:15:19.115Z,45.50
2023-01-22T08:17:50.666Z,51.92
2023-01-22T08:20:18.404Z,48.72
2023-01-22T08:22:45.583Z,47.40
2023-01-22T08:25:12.441Z,48.22
2023-01-22T08:27:39.299Z,46.47
2023-01-22T08:30:07.884Z,47.15
2023-01-22T08:32:35.447Z,45.05
2023-01-22T08:35:02.187Z,45.97
2023-01-22T08:37:28.911Z,44.45
2023-01-22T08:39:56.312Z,44.13
2023-01-22T08:42:22.949Z,46.90
2023-01-22T08:44:49.831Z,47.20
2023-01-22T08:47:16.737Z,46.47
2023-01-22T08:49:43.602Z,45.88
2023-01-22T08:52:11.321Z,45.65
2023-01-22T08:54:37.951Z,41.25
2023-01-22T08:57:04.707Z,48.42
2023-01-22T08:59:31.418Z,56.97
2023-01-22T09:01:59.793Z,60.70
2023-01-22T09:04:27.299Z,62.55
2023-01-22T09:06:54.134Z,64.78
2023-01-22T09:09:20.993Z,63.20
2023-01-22T09:11:48.071Z,63.65
2023-01-22T09:14:14.989Z,63.42
2023-01-22T09:16:41.745Z,61.78
2023-01-22T09:19:08.447Z,56.38
2023-01-22T09:21:37.645Z,56.10
2023-01-22T09:24:05.268Z,49.83
2023-01-22T09:26:32.495Z,46.92
2023-01-22T09:29:05.858Z,41.20
2023-01-22T09:31:34.437Z,41.42
2023-01-22T09:34:01.573Z,38.92
2023-01-22T09:36:28.744Z,39.28
2023-01-22T09:38:56.126Z,38.97
2023-01-22T09:41:28.968Z,35.25
2023-01-22T09:44:32.397Z,31.90
2023-01-22T09:47:11.471Z,35.80
2023-01-22T09:49:59.021Z,35.45
2023-01-22T09:52:28.723Z,32.85
2023-01-22T09:54:56.064Z,35.67
2023-01-22T09:57:31.280Z,37.75
2023-01-22T09:59:59.181Z,37.90
2023-01-22T10:02:41.042Z,40.40
2023-01-22T10:05:16.874Z,38.95
2023-01-22T10:07:51.649Z,36.13
2023-01-22T10:10:27.729Z,33.67
2023-01-22T10:13:22.434Z,41.13
2023-01-22T10:15:52.572Z,45.25
2023-01-22T10:18:53.026Z,46.95
2023-01-22T10:21:34.020Z,49.08
2023-01-22T10:24:01.126Z,51.67
2023-01-22T10:26:35.672Z,52.22
2023-01-22T10:29:23.974Z,50.63
2023-01-22T10:32:21.547Z,47.25
2023-01-22T10:35:13.190Z,43.80
2023-01-22T10:37:45.616Z,37.17
2023-01-22T10:40:25.641Z,41.30
2023-01-22T10:43:04.704Z,41.58
2023-01-22T10:45:31.703Z,38.67
2023-01-22T10:48:24.925Z,37.22
2023-01-22T10:51:17.675Z,33.90
2023-01-22T10:53:52.203Z,32.67
2023-01-22T10:56:35.507Z,33.28
2023-01-22T10:59:17.339Z,32.42
2023-01-22T11:01:44.389Z,34.08
2023-01-22T11:04:29.137Z,33.58
2023-01-22T11:07:32.693Z,36.05
2023-01-22T11:10:51.719Z,33.97
2023-01-22T11:13:28.654Z,31.60
2023-01-22T11:16:04.192Z,32.10
2023-01-22T11:18:40.247Z,30.02
2023-01-22T11:21:21.446Z,30.05
2023-01-22T11:24:17.438Z,32.03
2023-01-22T11:26:50.234Z,30.38
2023-01-22T11:29:41.573Z,29.95
2023-01-22T11:32:41.043Z,30.73
2023-01-22T11:35:38.700Z,29.50
2023-01-22T11:38:23.025Z,29.02
2023-01-22T11:41:09.800Z,28.80
2023-01-22T11:43:58.450Z,29.42
2023-01-22T11:46:44.054Z,28.38
2023-01-22T11:49:19.548Z,29.20
2023-01-22T11:52:19.668Z,29.42
2023-01-22T11:54:55.256Z,28.92
2023-01-22T11:57:33.088Z,28.25
2023-01-22T12:00:18.374Z,29.20
2023-01-22T12:03:24.274Z,30.38
2023-01-22T12:06:18.167Z,29.48
2023-01-22T12:08:54.009Z,29.38
2023-01-22T12:11:37.999Z,27.85
2023-01-22T12:14:25.006Z,26.33
2023-01-22T12:17:00.930Z,28.85
2023-01-22T12:19:27.709Z,27.23
2023-01-22T12:22:27.204Z,28.67
2023-01-22T12:25:03.289Z,27.88
2023-01-22T12:27:45.011Z,29.70
2023-01-22T12:30:27.589Z,29.58
2023-01-22T12:33:04.383Z,29.55
2023-01-22T12:35:32.453Z,29.73
2023-01-22T12:38:12.558Z,27.83
2023-01-22T12:41:21.525Z,28.15
2023-01-22T12:43:54.015Z,28.00
2023-01-22T12:46:35.784Z,27.83
2023-01-22T12:49:06.840Z,25.25
2023-01-22T12:51:46.072Z,25.70
2023-01-22T12:54:29.828Z,24.63
2023-01-22T12:57:09.870Z,24.95
2023-01-22T12:59:36.662Z,23.85
2023-01-22T13:02:20.100Z,24.73
2023-01-22T13:04:46.770Z,23.67
2023-01-22T13:07:33.364Z,26.38
2023-01-22T13:10:04.770Z,25.52
2023-01-22T13:12:45.577Z,25.17
2023-01-22T13:15:26.370Z,25.70
2023-01-22T13:18:07.182Z,26.55
2023-01-22T13:20:55.188Z,28.58
2023-01-22T13:23:22.793Z,26.52
2023-01-22T13:25:54.921Z,27.60
2023-01-22T13:28:22.665Z,28.65
2023-01-22T13:31:09.372Z,28.55
2023-01-22T13:33:36.536Z,28.83
2023-01-22T13:36:11.063Z,29.98
2023-01-22T13:38:38.027Z,29.92
2023-01-22T13:41:11.041Z,30.90
2023-01-22T13:43:40.097Z,31.17
2023-01-22T13:46:07.323Z,31.48
2023-01-22T13:48:34.243Z,31.17
2023-01-22T13:51:07.377Z,30.90
2023-01-22T13:53:41.669Z,29.67
2023-01-22T13:56:16.404Z,33.45
2023-01-22T13:58:48.692Z,29.90
2023-01-22T14:01:32.186Z,31.70
2023-01-22T14:04:05.812Z,30.88
2023-01-22T14:06:48.408Z,32.38
2023-01-22T14:09:45.603Z,32.47
2023-01-22T14:12:35.947Z,31.45
2023-01-22T14:15:21.916Z,32.60
2023-01-22T14:17:50.575Z,33.08
2023-01-22T14:20:17.814Z,32.90
2023-01-22T14:22:44.628Z,34.72
2023-01-22T14:25:11.686Z,35.20
2023-01-22T14:27:45.160Z,35.50
2023-01-22T14:30:15.474Z,35.97
2023-01-22T14:32:43.414Z,35.20
2023-01-22T14:35:20.738Z,34.67
2023-01-22T14:37:48.158Z,36.58
2023-01-22T14:40:17.718Z,44.53
2023-01-22T14:42:45.356Z,40.13
2023-01-22T14:45:12.747Z,35.72
2023-01-22T14:47:39.903Z,35.03
2023-01-22T14:50:07.710Z,35.13
2023-01-22T14:52:34.405Z,34.47
2023-01-22T14:55:01.119Z,34.92
2023-01-22T14:57:27.834Z,33.25
2023-01-22T14:59:54.478Z,32.83
2023-01-22T15:02:21.133Z,33.25
2023-01-22T15:04:48.861Z,33.65
2023-01-22T15:07:15.468Z,31.83
2023-01-22T15:09:42.398Z,34.28
2023-01-22T15:12:09.393Z,32.53
2023-01-22T15:14:36.040Z,33.70
2023-01-22T15:17:02.940Z,34.97
2023-01-22T15:19:38.951Z,31.30
2023-01-22T15:22:07.643Z,31.88
2023-01-22T15:24:34.444Z,32.80
2023-01-22T15:27:01.035Z,34.88
2023-01-22T15:29:27.617Z,33.33
2023-01-22T15:31:54.937Z,32.05
2023-01-22T15:34:21.711Z,33.35
2023-01-22T15:36:48.560Z,35.45
2023-01-22T15:39:15.506Z,33.85
2023-01-22T15:41:42.772Z,32.13
2023-01-22T15:44:12.166Z,34.25
2023-01-22T15:46:42.284Z,35.72
2023-01-22T15:49:10.446Z,37.33
2023-01-22T15:51:37.741Z,37.80
2023-01-22T15:54:06.740Z,35.38
2023-01-22T15:56:36.559Z,34.72
2023-01-22T15:59:04.174Z,34.95
2023-01-22T16:01:31.007Z,33.28
2023-01-22T16:03:58.142Z,34.22
2023-01-22T16:06:27.272Z,31.85
2023-01-22T16:08:57.734Z,33.05
2023-01-22T16:11:26.345Z,32.63
2023-01-22T16:13:53.724Z,45.28
2023-01-22T16:16:33.290Z,40.33
2023-01-22T16:19:02.405Z,34.80
2023-01-22T16:21:29.542Z,36.13
2023-01-22T16:23:59.117Z,36.67
2023-01-22T16:26:29.763Z,34.30
2023-01-22T16:28:58.245Z,39.50
2023-01-22T16:31:27.889Z,35.38
2023-01-22T16:33:59.877Z,37.67
2023-01-22T16:36:29.690Z,38.13
2023-01-22T16:38:56.413Z,36.20
2023-01-22T16:41:31.379Z,35.20
2023-01-22T16:43:58.669Z,35.42
2023-01-22T16:46:28.252Z,41.15
2023-01-22T16:48:58.888Z,39.10
2023-01-22T16:51:27.810Z,40.67
2023-01-22T16:53:55.462Z,38.35
2023-01-22T16:56:22.402Z,41.90
2023-01-22T16:58:49.068Z,50.40
2023-01-22T17:01:15.870Z,38.72
2023-01-22T17:03:42.923Z,51.80
2023-01-22T17:06:28.735Z,61.97
2023-01-22T17:08:55.878Z,46.25
2023-01-22T17:11:23.039Z,58.63
2023-01-22T17:13:50.019Z,54.63
2023-01-22T17:16:17.859Z,50.33
2023-01-22T17:18:45.179Z,49.53
2023-01-22T17:21:16.906Z,46.78
2023-01-22T17:23:44.210Z,45.75
2023-01-22T17:26:13.642Z,45.00
2023-01-22T17:28:40.333Z,44.33
2023-01-22T17:31:12.890Z,44.72
2023-01-22T17:33:39.661Z,45.60
2023-01-22T17:36:07.085Z,40.83
2023-01-22T17:38:38.454Z,40.00
2023-01-22T17:41:11.378Z,41.63
2023-01-22T17:43:39.106Z,40.38
2023-01-22T17:46:11.008Z,40.92
2023-01-22T17:48:38.581Z,37.33
2023-01-22T17:51:14.400Z,36.05
2023-01-22T17:53:43.224Z,40.67
2023-01-22T17:56:18.644Z,41.88
2023-01-22T17:58:50.209Z,33.63
2023-01-22T18:01:20.034Z,33.40
2023-01-22T18:03:47.656Z,39.00
2023-01-22T18:06:15.029Z,49.25
2023-01-22T18:08:42.606Z,34.85
2023-01-22T18:11:15.493Z,56.92
2023-01-22T18:13:43.203Z,127.18
2023-01-22T18:16:14.319Z,87.75
2023-01-22T18:18:42.312Z,103.85
2023-01-22T18:21:19.174Z,77.32
2023-01-22T18:23:46.942Z,93.10
2023-01-22T18:26:14.672Z,89.47
2023-01-22T18:28:46.255Z,89.78
2023-01-22T18:31:15.562Z,79.97
2023-01-22T18:33:45.051Z,74.88
2023-01-22T18:36:14.743Z,74.60
2023-01-22T18:38:42.097Z,62.85
2023-01-22T18:41:11.670Z,66.00
2023-01-22T18:43:39.166Z,57.67
2023-01-22T18:46:08.696Z,56.88
2023-01-22T18:48:35.678Z,51.28
2023-01-22T18:51:03.088Z,44.83
2023-01-22T18:53:31.006Z,44.70
2023-01-22T18:56:01.337Z,42.67
2023-01-22T18:58:34.334Z,45.17
2023-01-22T19:01:15.092Z,43.03
2023-01-22T19:03:44.168Z,44.00
2023-01-22T19:06:14.314Z,42.13
2023-01-22T19:08:46.448Z,38.83
2023-01-22T19:11:14.443Z,39.30
2023-01-22T19:13:42.240Z,35.20
2023-01-22T19:16:12.409Z,35.38
2023-01-22T19:18:42.414Z,38.53
2023-01-22T19:21:12.832Z,35.03
2023-01-22T19:23:41.294Z,34.08
2023-01-22T19:26:12.669Z,37.33
2023-01-22T19:28:39.911Z,36.25
2023-01-22T19:31:28.886Z,34.67
2023-01-22T19:33:56.932Z,35.10
2023-01-22T19:36:29.772Z,34.78
2023-01-22T19:38:59.178Z,32.85
2023-01-22T19:41:26.639Z,33.40
2023-01-22T19:43:58.274Z,35.58
2023-01-22T19:46:31.119Z,39.45
2023-01-22T19:48:57.928Z,35.13
2023-01-22T19:51:27.078Z,32.80
2023-01-22T19:53:54.980Z,39.25
2023-01-22T19:56:26.944Z,38.42
2023-01-22T19:58:58.163Z,40.63
2023-01-22T20:01:25.310Z,42.40
2023-01-22T20:03:54.913Z,48.38
2023-01-22T20:06:23.543Z,53.65
2023-01-22T20:08:50.716Z,48.47
2023-01-22T20:11:17.907Z,43.60
2023-01-22T20:13:44.991Z,46.67
2023-01-22T20:16:21.428Z,38.60
2023-01-22T20:18:49.663Z,39.97
2023-01-22T20:21:17.565Z,35.92
2023-01-22T20:23:45.817Z,39.05
2023-01-22T20:26:13.119Z,36.15
2023-01-22T20:28:40.086Z,33.42
2023-01-22T20:31:11.389Z,32.88
2023-01-22T20:33:38.164Z,33.75
2023-01-22T20:36:08.584Z,30.48
2023-01-22T20:38:35.640Z,29.05
2023-01-22T20:41:05.258Z,33.20
2023-01-22T20:43:32.547Z,31.38
2023-01-22T20:46:05.878Z,30.05
2023-01-22T20:48:33.146Z,34.00
2023-01-22T20:51:00.424Z,37.08
2023-01-22T20:53:28.204Z,39.90
2023-01-22T20:56:00.519Z,45.25
2023-01-22T20:58:27.567Z,37.00
2023-01-22T21:00:54.226Z,38.00
2023-01-22T21:03:22.017Z,46.65
2023-01-22T21:05:48.629Z,43.15
2023-01-22T21:08:15.726Z,39.45
2023-01-22T21:10:42.457Z,28.45
2023-01-22T21:13:09.161Z,34.70
2023-01-22T21:15:36.859Z,33.78
2023-01-22T21:18:03.761Z,42.58
2023-01-22T21:20:30.620Z,35.60
2023-01-22T21:22:57.272Z,33.42
2023-01-22T21:25:23.987Z,32.70
2023-01-22T21:27:51.254Z,31.85
2023-01-22T21:30:18.403Z,117.80
2023-01-22T21:32:49.649Z,34.65
2023-01-22T21:35:16.644Z,32.00
2023-01-22T21:37:43.221Z,33.58
2023-01-22T21:40:13.530Z,32.78
2023-01-22T21:42:58.807Z,33.38
2023-01-22T21:45:45.125Z,28.85
2023-01-22T21:48:11.874Z,28.05
2023-01-22T21:50:42.024Z,28.88
2023-01-22T21:53:10.121Z,28.48
2023-01-22T21:55:36.779Z,28.52
2023-01-22T21:58:05.153Z,29.52
2023-01-22T22:00:32.759Z,30.67
2023-01-22T22:02:59.482Z,28.95
2023-01-22T22:05:28.077Z,28.70
2023-01-22T22:07:55.137Z,29.35
2023-01-22T22:10:21.955Z,27.13
2023-01-22T22:12:48.574Z,25.52
2023-01-22T22:15:15.432Z,24.15
2023-01-22T22:17:42.103Z,23.83
2023-01-22T22:20:10.358Z,23.30
2023-01-22T22:22:37.126Z,23.33
2023-01-22T22:25:04.104Z,20.92
2023-01-22T22:27:30.818Z,21.60
2023-01-22T22:29:57.569Z,20.83
2023-01-22T22:32:24.223Z,19.83
2023-01-22T22:34:50.859Z,17.80
2023-01-22T22:37:17.726Z,19.45
2023-01-22T22:39:44.482Z,19.40
2023-01-22T22:42:11.094Z,20.05
2023-01-22T22:44:37.958Z,19.70
2023-01-22T22:47:05.264Z,20.25
2023-01-22T22:49:31.918Z,19.25
2023-01-22T22:51:58.678Z,20.02
2023-01-22T22:54:25.366Z,18.83
2023-01-22T22:56:52.883Z,18.67
2023-01-22T22:59:21.185Z,17.60
2023-01-22T23:01:49.467Z,18.33
2023-01-22T23:04:16.561Z,17.13
2023-01-22T23:06:45.652Z,16.60
2023-01-22T23:09:17.761Z,15.75
2023-01-22T23:11:44.491Z,16.77
2023-01-22T23:14:11.587Z,17.90
2023-01-22T23:16:42.813Z,17.75
2023-01-22T23:19:15.361Z,16.17
2023-01-22T23:21:42.318Z,15.07
2023-01-22T23:24:10.576Z,15.30
2023-01-22T23:26:38.352Z,15.13
2023-01-22T23:29:07.462Z,14.65
2023-01-22T23:31:36.345Z,12.80
2023-01-22T23:34:03.687Z,12.52
2023-01-22T23:36:30.833Z,14.95
2023-01-22T23:38:57.466Z,13.52
2023-01-22T23:41:24.444Z,15.80
2023-01-22T23:43:51.494Z,13.20
2023-01-22T23:46:24.800Z,12.32
2023-01-22T23:48:52.598Z,14.15
2023-01-22T23:51:19.494Z,15.48
2023-01-22T23:53:52.871Z,18.50
2023-01-22T23:56:23.973Z,23.60
2023-01-22T23:58:56.573Z,13.80
